METAR AND TAF INFORMATION
METAR FOR LFMN
ADDS - METARS form results

(0522 UTC 13 December 2017)
Data provider http://aviationweather.gov/adds/metars/
 
METAR text: LFMN 130500Z 35006KT CAVOK 06/M01 Q1015 NOSIG
Conditions at: LFMN (NICE/COTE D'AZUR, FR) observed 0500 UTC 13 December 2017
Temperature: 6.0°C (43°F)
Dewpoint: -1.0°C (30°F) [RH = 61%]
Pressure (altimeter): 29.97 inches Hg (1015.0 mb)
Winds: from the N (350 degrees) at 7 MPH (6 knots; 3.1 m/s)
Visibility: 6 or more miles (10+ km)
Ceiling: ceiling and visibility are OK
Clouds: unknown
Weather: no significant weather observed at this time

METAR text: LFMN 130430Z 33009KT 300V360 CAVOK 05/M01 Q1015 NOSIG
Conditions at: LFMN (NICE/COTE D'AZUR, FR) observed 0430 UTC 13 December 2017
Temperature: 5.0°C (41°F)
Dewpoint: -1.0°C (30°F) [RH = 65%]
Pressure (altimeter): 29.97 inches Hg (1015.0 mb)
Winds: from the NNW (330 degrees) at 10 MPH (9 knots; 4.7 m/s)
Visibility: 6 or more miles (10+ km)
Ceiling: ceiling and visibility are OK
Clouds: unknown
Weather: no significant weather observed at this time

Forecast for: LFMN (NICE/COTE D'AZUR, FR)
Text: TAF LFMN 130200Z 1303/1409 32010KT CAVOK
Forecast period: 0300 to 0900 UTC 13 December 2017
Forecast type: FROM: standard forecast or significant change
Winds: from the NW (320 degrees) at 12 MPH (10 knots; 5.2 m/s)
Visibility: 6 or more miles (10+ km)
Clouds: not forecast
Weather: NSW  (no significant weather)
Text: BECMG 1309/1311 20008KT
Forecast period: 0900 UTC 13 December 2017 to 0900 UTC 14 December 2017
Forecast type: BECOMING: Conditions expected to become as follows by 1100 UTC 13 December 2017
Winds: from the SSW (200 degrees) at 9 MPH (8 knots; 4.2 m/s)
Visibility: 6 or more miles (10+ km)
Weather: NSW  (no significant weather)
Text: TEMPO 1318/1408 24017G30KT
Forecast period: 1800 UTC 13 December 2017 to 0800 UTC 14 December 2017
Forecast type: TEMPORARY: The following changes expected for less than half the time period
Winds: from the WSW (240 degrees) at 20 MPH (17 knots; 8.8 m/s)
gusting to 34 MPH (30 knots; 15.6 m/s)
Weather: no significant weather forecast for this period

 AIRPORT MAP

 RUNWAY INFORMATION
Runway 04L Runway length 8995 ft Runway width 148 ft
Runway elevation 10 ft Runway displaced threshold 0 ft Runway heading 45
Runway 22R Runway length 8995 ft Runway width 148 ft
Runway elevation 10 ft Runway displaced threshold 575 ft Runway heading 225
Runway 04R Runway length 9712 ft Runway width 148 ft
Runway elevation 10 ft Runway displaced threshold 0 ft Runway heading 45
Runway 22L Runway length 9712 ft Runway width 148 ft
Runway elevation 12 ft Runway displaced threshold 0 ft Runway heading 225

 AIRPORT FREQUENCIES
Type A/D Name NICE APP Frequency 124.175 MHZ
Type ATIS Name NICE ATIS Frequency 129.6 MHZ
Type GND Name NICE GND Frequency 121.775 MHZ
Type TWR Name NICE TWR Frequency 118.7 MHZ

 AIRPORT NEAR NAVIGATION AIDS